createdAt,value
2023-02-12T00:02:27.032Z,8.80
2023-02-12T00:04:53.984Z,8.80
2023-02-12T00:07:20.897Z,8.80
2023-02-12T00:09:47.771Z,8.80
2023-02-12T00:12:14.648Z,8.80
2023-02-12T00:14:41.503Z,8.70
2023-02-12T00:17:08.376Z,8.70
2023-02-12T00:19:35.328Z,8.70
2023-02-12T00:22:02.186Z,8.70
2023-02-12T00:24:29.023Z,8.70
2023-02-12T00:26:56.000Z,8.70
2023-02-12T00:29:22.895Z,8.70
2023-02-12T00:31:49.893Z,8.70
2023-02-12T00:34:16.849Z,8.70
2023-02-12T00:36:43.700Z,8.60
2023-02-12T00:39:10.695Z,8.70
2023-02-12T00:41:37.514Z,8.70
2023-02-12T00:44:04.548Z,8.70
2023-02-12T00:46:31.554Z,8.70
2023-02-12T00:48:58.502Z,8.70
2023-02-12T00:51:25.470Z,8.70
2023-02-12T00:53:52.491Z,8.70
2023-02-12T00:56:19.401Z,8.70
2023-02-12T00:58:49.099Z,8.70
2023-02-12T01:01:16.078Z,8.70
2023-02-12T01:03:42.921Z,8.70
2023-02-12T01:06:09.792Z,8.70
2023-02-12T01:08:36.729Z,8.70
2023-02-12T01:11:05.079Z,8.60
2023-02-12T01:13:32.314Z,8.60
2023-02-12T01:16:21.461Z,8.60
2023-02-12T01:18:49.888Z,8.60
2023-02-12T01:21:25.094Z,8.60
2023-02-12T01:23:51.951Z,8.60
2023-02-12T01:26:19.622Z,8.60
2023-02-12T01:28:50.085Z,8.60
2023-02-12T01:31:18.850Z,8.60
2023-02-12T01:33:48.774Z,8.50
2023-02-12T01:36:15.940Z,8.50
2023-02-12T01:38:42.999Z,8.50
2023-02-12T01:41:13.012Z,8.50
2023-02-12T01:43:40.305Z,8.50
2023-02-12T01:46:07.810Z,8.50
2023-02-12T01:48:40.493Z,8.50
2023-02-12T01:51:08.016Z,8.50
2023-02-12T01:53:45.132Z,8.50
2023-02-12T01:56:12.469Z,8.50
2023-02-12T01:58:42.620Z,8.60
2023-02-12T02:01:20.305Z,8.60
2023-02-12T02:03:49.438Z,8.60
2023-02-12T02:06:29.907Z,8.70
2023-02-12T02:08:56.842Z,8.70
2023-02-12T02:11:42.088Z,8.70
2023-02-12T02:14:27.643Z,8.70
2023-02-12T02:17:00.535Z,8.80
2023-02-12T02:20:22.404Z,8.80
2023-02-12T02:23:07.492Z,8.80
2023-02-12T02:25:43.231Z,8.70
2023-02-12T02:28:40.645Z,8.70
2023-02-12T02:31:22.010Z,8.70
2023-02-12T02:33:59.357Z,8.70
2023-02-12T02:36:35.756Z,8.60
2023-02-12T02:39:19.224Z,8.60
2023-02-12T02:42:28.119Z,8.60
2023-02-12T02:45:01.954Z,8.60
2023-02-12T02:47:38.905Z,8.60
2023-02-12T02:50:11.439Z,8.60
2023-02-12T02:52:45.534Z,8.60
2023-02-12T02:55:13.287Z,8.60
2023-02-12T02:57:45.062Z,8.50
2023-02-12T03:00:18.645Z,8.50
2023-02-12T03:02:55.495Z,8.50
2023-02-12T03:05:33.716Z,8.60
2023-02-12T03:08:05.184Z,8.50
2023-02-12T03:10:35.032Z,8.50
2023-02-12T03:13:28.667Z,8.50
2023-02-12T03:16:11.722Z,8.50
2023-02-12T03:18:47.088Z,8.50
2023-02-12T03:21:17.113Z,8.50
2023-02-12T03:23:52.960Z,8.50
2023-02-12T03:26:26.242Z,8.40
2023-02-12T03:28:53.216Z,8.40
2023-02-12T03:31:44.874Z,8.30
2023-02-12T03:34:30.422Z,8.40
2023-02-12T03:36:59.448Z,8.40
2023-02-12T03:39:34.630Z,8.40
2023-02-12T03:42:24.464Z,8.40
2023-02-12T03:44:56.432Z,8.40
2023-02-12T03:47:31.831Z,8.40
2023-02-12T03:50:04.396Z,8.30
2023-02-12T03:52:31.290Z,8.30
2023-02-12T03:54:58.380Z,8.30
2023-02-12T03:57:30.827Z,8.30
2023-02-12T03:59:59.065Z,8.40
2023-02-12T04:02:25.945Z,8.30
2023-02-12T04:04:52.798Z,8.20
2023-02-12T04:07:19.648Z,8.20
2023-02-12T04:09:46.589Z,8.20
2023-02-12T04:12:52.992Z,8.20
2023-02-12T04:15:28.597Z,8.30
2023-02-12T04:18:20.440Z,8.30
2023-02-12T04:21:21.363Z,8.30
2023-02-12T04:24:02.329Z,8.20
2023-02-12T04:26:48.157Z,8.20
2023-02-12T04:29:29.095Z,8.20
2023-02-12T04:32:27.925Z,8.20
2023-02-12T04:35:02.986Z,8.10
2023-02-12T04:37:36.939Z,8.20
2023-02-12T04:40:06.243Z,8.20
2023-02-12T04:42:44.438Z,8.10
2023-02-12T04:45:15.313Z,8.10
2023-02-12T04:47:42.197Z,8.10
2023-02-12T04:50:09.449Z,8.10
2023-02-12T04:52:36.340Z,8.00
2023-02-12T04:55:03.361Z,8.00
2023-02-12T04:57:30.300Z,8.00
2023-02-12T04:59:57.197Z,8.00
2023-02-12T05:02:24.123Z,8.10
2023-02-12T05:04:51.049Z,8.10
2023-02-12T05:07:17.927Z,8.10
2023-02-12T05:09:44.804Z,8.10
2023-02-12T05:12:11.687Z,8.10
2023-02-12T05:14:38.617Z,8.10
2023-02-12T05:17:05.473Z,8.10
2023-02-12T05:19:32.474Z,8.10
2023-02-12T05:21:59.325Z,8.10
2023-02-12T05:24:26.300Z,8.10
2023-02-12T05:26:53.240Z,8.10
2023-02-12T05:29:20.145Z,8.10
2023-02-12T05:31:47.148Z,8.00
2023-02-12T05:34:14.393Z,8.10
2023-02-12T05:36:41.327Z,8.10
2023-02-12T05:39:08.221Z,8.10
2023-02-12T05:41:35.726Z,8.10
2023-02-12T05:44:03.448Z,8.00
2023-02-12T05:46:30.351Z,8.00
2023-02-12T05:48:57.304Z,8.00
2023-02-12T05:51:25.306Z,8.00
2023-02-12T05:53:53.620Z,8.00
2023-02-12T05:56:25.329Z,8.10
2023-02-12T05:58:54.217Z,8.00
2023-02-12T06:01:23.259Z,8.00
2023-02-12T06:03:50.258Z,8.00
2023-02-12T06:06:17.171Z,8.00
2023-02-12T06:08:44.063Z,7.90
2023-02-12T06:11:13.030Z,7.90
2023-02-12T06:13:40.052Z,7.90
2023-02-12T06:16:07.284Z,7.90
2023-02-12T06:18:37.358Z,7.90
2023-02-12T06:21:04.786Z,7.90
2023-02-12T06:23:31.662Z,7.90
2023-02-12T06:25:58.793Z,8.00
2023-02-12T06:28:26.300Z,8.00
2023-02-12T06:30:53.368Z,7.90
2023-02-12T06:33:20.281Z,7.90
2023-02-12T06:35:47.249Z,7.90
2023-02-12T06:38:14.155Z,7.90
2023-02-12T06:40:41.116Z,7.90
2023-02-12T06:43:08.013Z,7.90
2023-02-12T06:45:35.022Z,7.90
2023-02-12T06:48:01.942Z,7.90
2023-02-12T06:50:29.101Z,7.90
2023-02-12T06:52:55.936Z,7.80
2023-02-12T06:55:22.833Z,7.80
2023-02-12T06:57:49.812Z,7.80
2023-02-12T07:00:17.072Z,7.80
2023-02-12T07:02:43.936Z,7.80
2023-02-12T07:05:10.884Z,7.90
2023-02-12T07:07:37.777Z,7.90
2023-02-12T07:10:04.791Z,7.90
2023-02-12T07:12:33.705Z,7.90
2023-02-12T07:15:00.578Z,7.90
2023-02-12T07:17:29.078Z,7.90
2023-02-12T07:19:55.951Z,7.90
2023-02-12T07:22:22.939Z,7.90
2023-02-12T07:24:50.472Z,7.90
2023-02-12T07:27:17.343Z,7.90
2023-02-12T07:29:44.362Z,7.90
2023-02-12T07:32:11.304Z,8.00
2023-02-12T07:34:38.228Z,8.00
2023-02-12T07:37:05.753Z,8.00
2023-02-12T07:39:32.865Z,8.00
2023-02-12T07:41:59.788Z,8.10
2023-02-12T07:44:26.664Z,8.00
2023-02-12T07:46:53.528Z,8.10
2023-02-12T07:49:21.696Z,8.10
2023-02-12T07:51:51.545Z,8.10
2023-02-12T07:54:18.608Z,8.10
2023-02-12T07:56:47.330Z,8.10
2023-02-12T07:59:16.525Z,8.10
2023-02-12T08:01:50.994Z,8.10
2023-02-12T08:04:20.506Z,8.10
2023-02-12T08:06:49.028Z,8.20
2023-02-12T08:09:18.108Z,8.20
2023-02-12T08:11:45.028Z,8.20
2023-02-12T08:14:13.086Z,8.20
2023-02-12T08:16:40.894Z,8.20
2023-02-12T08:19:17.911Z,8.20
2023-02-12T08:21:50.188Z,8.30
2023-02-12T08:24:17.077Z,8.20
2023-02-12T08:26:44.474Z,8.20
2023-02-12T08:29:16.079Z,8.30
2023-02-12T08:31:45.172Z,8.30
2023-02-12T08:34:25.592Z,8.40
2023-02-12T08:36:54.267Z,8.40
2023-02-12T08:39:22.038Z,8.40
2023-02-12T08:41:49.217Z,8.50
2023-02-12T08:44:16.279Z,8.50
2023-02-12T08:46:47.609Z,8.50
2023-02-12T08:49:16.159Z,8.50
2023-02-12T08:51:48.819Z,8.60
2023-02-12T08:54:27.286Z,8.60
2023-02-12T08:56:58.173Z,8.60
2023-02-12T08:59:25.152Z,8.60
2023-02-12T09:01:52.527Z,8.70
2023-02-12T09:04:24.600Z,8.70
2023-02-12T09:06:52.020Z,8.80
2023-02-12T09:09:19.894Z,8.80
2023-02-12T09:11:47.223Z,8.80
2023-02-12T09:14:15.532Z,8.80
2023-02-12T09:16:43.270Z,8.90
2023-02-12T09:19:11.891Z,8.90
2023-02-12T09:21:38.784Z,9.00
2023-02-12T09:24:05.823Z,9.10
2023-02-12T09:26:32.825Z,9.10
2023-02-12T09:29:01.303Z,9.20
2023-02-12T09:31:29.354Z,9.10
2023-02-12T09:33:59.473Z,9.10
2023-02-12T09:36:26.389Z,9.20
2023-02-12T09:38:54.341Z,9.20
2023-02-12T09:41:46.711Z,9.20
2023-02-12T09:44:39.650Z,9.20
2023-02-12T09:47:29.589Z,9.30
2023-02-12T09:50:21.054Z,9.30
2023-02-12T09:52:48.209Z,9.30
2023-02-12T09:55:15.616Z,9.30
2023-02-12T09:57:42.455Z,9.30
2023-02-12T10:00:17.833Z,9.30
2023-02-12T10:02:44.778Z,9.40
2023-02-12T10:05:29.308Z,9.40
2023-02-12T10:08:27.030Z,9.60
2023-02-12T10:11:01.764Z,9.60
2023-02-12T10:14:02.137Z,9.60
2023-02-12T10:16:49.488Z,9.60
2023-02-12T10:19:19.232Z,9.60
2023-02-12T10:21:55.931Z,9.60
2023-02-12T10:24:44.728Z,9.60
2023-02-12T10:27:15.720Z,9.60
2023-02-12T10:29:43.882Z,9.70
2023-02-12T10:32:18.044Z,9.60
2023-02-12T10:34:44.929Z,9.70
2023-02-12T10:37:32.448Z,9.80
2023-02-12T10:40:06.480Z,9.80
2023-02-12T10:42:41.343Z,9.80
2023-02-12T10:45:17.202Z,9.80
2023-02-12T10:47:47.498Z,9.80
2023-02-12T10:50:22.654Z,9.90
2023-02-12T10:52:55.432Z,9.90
2023-02-12T10:55:30.344Z,9.90
2023-02-12T10:57:57.609Z,9.80
2023-02-12T11:00:31.861Z,9.70
2023-02-12T11:03:13.933Z,9.70
2023-02-12T11:05:42.208Z,9.70
2023-02-12T11:08:30.543Z,9.80
2023-02-12T11:11:08.423Z,9.80
2023-02-12T11:13:35.398Z,9.80
2023-02-12T11:16:02.826Z,9.80
2023-02-12T11:18:33.062Z,9.80
2023-02-12T11:21:06.150Z,9.90
2023-02-12T11:23:35.048Z,10.00
2023-02-12T11:26:27.071Z,10.10
2023-02-12T11:29:16.454Z,10.10
2023-02-12T11:31:43.819Z,10.00
2023-02-12T11:34:16.503Z,10.00
2023-02-12T11:36:45.640Z,10.00
2023-02-12T11:39:36.590Z,10.10
2023-02-12T11:42:17.511Z,10.20
2023-02-12T11:44:51.642Z,10.30
2023-02-12T11:47:23.962Z,10.20
2023-02-12T11:50:24.624Z,10.20
2023-02-12T11:52:52.583Z,10.10
2023-02-12T11:55:33.541Z,10.00
2023-02-12T11:58:22.848Z,10.00
2023-02-12T12:01:06.358Z,10.10
2023-02-12T12:04:17.680Z,10.10
2023-02-12T12:06:57.578Z,10.10
2023-02-12T12:09:31.086Z,10.20
2023-02-12T12:12:11.366Z,10.10
2023-02-12T12:15:08.752Z,10.20
2023-02-12T12:18:12.327Z,10.20
2023-02-12T12:20:45.931Z,10.30
2023-02-12T12:23:18.581Z,10.30
2023-02-12T12:25:51.429Z,10.30
2023-02-12T12:28:29.154Z,10.30
2023-02-12T12:30:58.482Z,10.30
2023-02-12T12:33:49.871Z,10.30
2023-02-12T12:36:38.554Z,10.30
2023-02-12T12:39:33.502Z,10.40
2023-02-12T12:42:38.641Z,10.40
2023-02-12T12:45:32.548Z,10.40
2023-02-12T12:48:08.066Z,10.30
2023-02-12T12:50:46.629Z,10.30
2023-02-12T12:53:28.538Z,10.30
2023-02-12T12:56:01.679Z,10.30
2023-02-12T12:58:53.222Z,10.30
2023-02-12T13:02:02.504Z,10.20
2023-02-12T13:04:50.769Z,10.20
2023-02-12T13:07:32.778Z,10.10
2023-02-12T13:10:30.734Z,10.10
2023-02-12T13:13:07.026Z,10.10
2023-02-12T13:15:51.435Z,10.00
2023-02-12T13:18:30.402Z,10.10
2023-02-12T13:21:03.687Z,10.00
2023-02-12T13:23:49.617Z,10.00
2023-02-12T13:26:22.691Z,9.90
2023-02-12T13:29:05.797Z,10.00
2023-02-12T13:31:34.629Z,10.00
2023-02-12T13:34:04.823Z,10.00
2023-02-12T13:36:31.848Z,10.00
2023-02-12T13:39:03.961Z,10.00
2023-02-12T13:41:30.917Z,10.00
2023-02-12T13:44:17.156Z,10.00
2023-02-12T13:47:09.080Z,10.00
2023-02-12T13:49:45.537Z,10.00
2023-02-12T13:52:22.946Z,10.00
2023-02-12T13:55:11.126Z,10.00
2023-02-12T13:57:38.179Z,10.00
2023-02-12T14:00:09.031Z,10.00
2023-02-12T14:02:38.901Z,10.00
2023-02-12T14:05:21.610Z,10.00
2023-02-12T14:08:03.589Z,10.00
2023-02-12T14:10:33.272Z,9.90
2023-02-12T14:13:17.441Z,9.90
2023-02-12T14:15:55.367Z,9.90
2023-02-12T14:18:29.372Z,9.90
2023-02-12T14:21:11.578Z,9.90
2023-02-12T14:23:46.154Z,9.90
2023-02-12T14:26:20.491Z,9.90
2023-02-12T14:28:57.820Z,9.90
2023-02-12T14:31:27.885Z,9.90
2023-02-12T14:34:07.651Z,9.90
2023-02-12T14:36:41.613Z,9.90
2023-02-12T14:39:20.421Z,9.90
2023-02-12T14:41:48.420Z,9.80
2023-02-12T14:44:18.020Z,9.80
2023-02-12T14:46:48.945Z,9.80
2023-02-12T14:49:28.972Z,9.70
2023-02-12T14:51:58.911Z,9.70
2023-02-12T14:54:49.883Z,9.70
2023-02-12T14:57:28.997Z,9.70
2023-02-12T15:00:17.050Z,9.70
2023-02-12T15:02:45.614Z,9.70
2023-02-12T15:05:27.579Z,9.70
2023-02-12T15:08:23.205Z,9.70
2023-02-12T15:10:52.925Z,9.70
2023-02-12T15:13:22.948Z,9.70
2023-02-12T15:15:53.560Z,9.60
2023-02-12T15:19:12.004Z,9.60
2023-02-12T15:21:38.905Z,9.60
2023-02-12T15:24:12.671Z,9.60
2023-02-12T15:26:50.145Z,9.50
2023-02-12T15:29:28.027Z,9.50
2023-02-12T15:31:59.118Z,9.50
2023-02-12T15:34:33.361Z,9.50
2023-02-12T15:37:03.683Z,9.50
2023-02-12T15:39:57.665Z,9.50
2023-02-12T15:42:29.389Z,9.40
2023-02-12T15:45:14.317Z,9.40
2023-02-12T15:47:41.834Z,9.30
2023-02-12T15:50:15.599Z,9.30
2023-02-12T15:52:44.276Z,9.30
2023-02-12T15:55:30.567Z,9.30
2023-02-12T15:58:01.590Z,9.20
2023-02-12T16:00:32.268Z,9.30
2023-02-12T16:02:59.169Z,9.30
2023-02-12T16:05:26.005Z,9.30
2023-02-12T16:07:52.980Z,9.30
2023-02-12T16:10:20.143Z,9.30
2023-02-12T16:12:47.524Z,9.20
2023-02-12T16:15:31.482Z,9.30
2023-02-12T16:17:59.860Z,9.30
2023-02-12T16:20:28.380Z,9.30
2023-02-12T16:22:55.408Z,9.30
2023-02-12T16:25:30.172Z,9.30
2023-02-12T16:27:57.185Z,9.30
2023-02-12T16:30:33.883Z,9.30
2023-02-12T16:33:01.644Z,9.20
2023-02-12T16:35:33.040Z,9.20
2023-02-12T16:38:22.924Z,9.30
2023-02-12T16:41:11.639Z,9.20
2023-02-12T16:43:38.939Z,9.20
2023-02-12T16:46:05.937Z,9.30
2023-02-12T16:48:37.537Z,9.30
2023-02-12T16:51:06.391Z,9.20
2023-02-12T16:53:36.675Z,9.20
2023-02-12T16:56:04.562Z,9.20
2023-02-12T16:58:31.430Z,9.10
2023-02-12T17:00:59.047Z,9.10
2023-02-12T17:03:26.094Z,9.10
2023-02-12T17:05:53.374Z,9.10
2023-02-12T17:08:22.229Z,9.10
2023-02-12T17:10:49.085Z,9.10
2023-02-12T17:13:16.261Z,9.10
2023-02-12T17:16:04.213Z,9.00
2023-02-12T17:18:32.946Z,9.00
2023-02-12T17:21:01.037Z,9.00
2023-02-12T17:23:28.047Z,8.90
2023-02-12T17:25:55.142Z,8.90
2023-02-12T17:28:23.064Z,8.90
2023-02-12T17:30:50.020Z,8.90
2023-02-12T17:33:16.931Z,8.90
2023-02-12T17:35:43.810Z,8.90
2023-02-12T17:38:10.701Z,8.90
2023-02-12T17:40:38.218Z,8.90
2023-02-12T17:43:05.951Z,8.90
2023-02-12T17:45:32.983Z,8.90
2023-02-12T17:48:00.119Z,8.90
2023-02-12T17:50:27.030Z,8.90
2023-02-12T17:52:53.971Z,8.90
2023-02-12T17:55:20.877Z,8.90
2023-02-12T17:57:52.138Z,8.90
2023-02-12T18:00:19.512Z,8.90
2023-02-12T18:02:46.354Z,8.90
2023-02-12T18:05:13.395Z,8.90
2023-02-12T18:07:40.323Z,8.90
2023-02-12T18:10:09.151Z,8.90
2023-02-12T18:12:37.016Z,8.90
2023-02-12T18:15:04.554Z,8.90
2023-02-12T18:17:31.504Z,8.90
2023-02-12T18:19:58.406Z,8.80
2023-02-12T18:22:25.236Z,8.80
2023-02-12T18:24:52.151Z,8.90
2023-02-12T18:27:19.099Z,8.80
2023-02-12T18:29:46.070Z,8.80
2023-02-12T18:32:16.004Z,8.80
2023-02-12T18:34:43.657Z,8.80
2023-02-12T18:37:11.334Z,8.80
2023-02-12T18:39:38.482Z,8.90
2023-02-12T18:42:05.685Z,8.90
2023-02-12T18:44:32.684Z,8.90
2023-02-12T18:47:00.161Z,8.90
2023-02-12T18:49:27.914Z,8.90
2023-02-12T18:51:55.008Z,8.90
2023-02-12T18:54:22.008Z,8.90
2023-02-12T18:56:51.539Z,8.90
2023-02-12T18:59:18.682Z,8.80
2023-02-12T19:01:47.220Z,8.80
2023-02-12T19:04:16.052Z,8.80
2023-02-12T19:06:45.178Z,8.80
2023-02-12T19:09:12.399Z,8.80
2023-02-12T19:11:39.308Z,8.80
2023-02-12T19:14:07.041Z,8.80
2023-02-12T19:16:34.284Z,8.80
2023-02-12T19:19:02.834Z,8.80
2023-02-12T19:21:29.788Z,8.80
2023-02-12T19:23:58.342Z,8.80
2023-02-12T19:26:28.043Z,8.80
2023-02-12T19:28:55.400Z,8.80
2023-02-12T19:31:30.672Z,8.80
2023-02-12T19:33:59.327Z,8.80
2023-02-12T19:36:27.023Z,8.80
2023-02-12T19:38:53.978Z,8.90
2023-02-12T19:41:22.546Z,8.80
2023-02-12T19:43:54.220Z,8.80
2023-02-12T19:46:21.194Z,8.80
2023-02-12T19:48:48.800Z,8.80
2023-02-12T19:51:17.013Z,8.80
2023-02-12T19:53:43.973Z,8.80
2023-02-12T19:56:10.932Z,8.80
2023-02-12T19:58:37.920Z,8.70
2023-02-12T20:01:15.701Z,8.70
2023-02-12T20:03:42.743Z,8.70
2023-02-12T20:06:14.324Z,8.70
2023-02-12T20:08:41.654Z,8.60
2023-02-12T20:11:13.958Z,8.60
2023-02-12T20:13:41.094Z,8.60
2023-02-12T20:16:12.766Z,8.60
2023-02-12T20:18:39.684Z,8.60
2023-02-12T20:21:20.712Z,8.60
2023-02-12T20:23:47.641Z,8.60
2023-02-12T20:26:15.081Z,8.70
2023-02-12T20:28:42.983Z,8.60
2023-02-12T20:31:16.602Z,8.70
2023-02-12T20:33:43.609Z,8.70
2023-02-12T20:36:12.096Z,8.70
2023-02-12T20:38:40.942Z,8.70
2023-02-12T20:41:08.619Z,8.70
2023-02-12T20:43:35.688Z,8.70
2023-02-12T20:46:10.892Z,8.60
2023-02-12T20:48:38.042Z,8.60
2023-02-12T20:51:09.379Z,8.60
2023-02-12T20:53:36.360Z,8.60
2023-02-12T20:56:05.082Z,8.60
2023-02-12T20:58:31.951Z,8.60
2023-02-12T21:01:09.116Z,8.60
2023-02-12T21:03:36.248Z,8.50
2023-02-12T21:06:03.310Z,8.50
2023-02-12T21:08:30.418Z,8.50
2023-02-12T21:11:05.224Z,8.50
2023-02-12T21:13:32.250Z,8.50
2023-02-12T21:16:10.441Z,8.50
2023-02-12T21:18:37.474Z,8.50
2023-02-12T21:21:10.429Z,8.50
2023-02-12T21:23:37.400Z,8.50
2023-02-12T21:26:08.429Z,8.40
2023-02-12T21:28:35.695Z,8.40
2023-02-12T21:31:13.930Z,8.40
2023-02-12T21:33:41.827Z,8.40
2023-02-12T21:36:13.530Z,8.40
2023-02-12T21:38:41.683Z,8.40
2023-02-12T21:41:09.446Z,8.40
2023-02-12T21:43:36.748Z,8.40
2023-02-12T21:46:03.834Z,8.30
2023-02-12T21:48:30.883Z,8.30
2023-02-12T21:50:58.117Z,8.30
2023-02-12T21:53:25.304Z,8.30
2023-02-12T21:55:52.444Z,8.30
2023-02-12T21:58:19.469Z,8.20
2023-02-12T22:00:46.560Z,8.20
2023-02-12T22:03:13.572Z,8.20
2023-02-12T22:05:40.433Z,8.20
2023-02-12T22:08:07.295Z,8.20
2023-02-12T22:10:36.311Z,8.20
2023-02-12T22:13:03.425Z,8.10
2023-02-12T22:15:30.280Z,8.20
2023-02-12T22:17:57.405Z,8.20
2023-02-12T22:20:24.272Z,8.20
2023-02-12T22:22:51.150Z,8.10
2023-02-12T22:25:18.012Z,8.10
2023-02-12T22:27:44.897Z,8.10
2023-02-12T22:30:12.104Z,8.00
2023-02-12T22:32:38.995Z,8.00
2023-02-12T22:35:06.366Z,8.00
2023-02-12T22:37:33.237Z,8.00
2023-02-12T22:40:00.082Z,8.00
2023-02-12T22:42:26.984Z,8.00
2023-02-12T22:44:53.941Z,7.90
2023-02-12T22:47:23.246Z,7.90
2023-02-12T22:49:50.420Z,7.90
2023-02-12T22:52:17.285Z,7.90
2023-02-12T22:54:44.231Z,7.80
2023-02-12T22:57:11.083Z,7.80
2023-02-12T22:59:37.983Z,7.80
2023-02-12T23:02:04.904Z,7.80
2023-02-12T23:04:31.806Z,7.80
2023-02-12T23:06:58.652Z,7.80
2023-02-12T23:09:25.572Z,7.80
2023-02-12T23:11:52.391Z,7.80
2023-02-12T23:14:19.281Z,7.80
2023-02-12T23:16:46.631Z,7.90
2023-02-12T23:19:13.663Z,7.80
2023-02-12T23:21:40.614Z,7.70
2023-02-12T23:24:07.669Z,7.70
2023-02-12T23:26:35.912Z,7.70
2023-02-12T23:29:02.816Z,7.70
2023-02-12T23:31:30.114Z,7.70
2023-02-12T23:33:56.988Z,7.70
2023-02-12T23:36:23.995Z,7.60
2023-02-12T23:38:50.886Z,7.60
2023-02-12T23:41:17.827Z,7.60
2023-02-12T23:43:44.685Z,7.60
2023-02-12T23:46:11.641Z,7.60
2023-02-12T23:48:38.615Z,7.50
2023-02-12T23:51:05.634Z,7.60
2023-02-12T23:53:32.521Z,7.50
2023-02-12T23:55:59.461Z,7.40
2023-02-12T23:58:26.345Z,7.40
